sensor_id;sensor_type;location;lat;lon;timestamp;pressure;altitude;pressure_sealevel;temperature;humidity
60101;BME280;45978;53.646;55.930;2022-09-09T00:00:41;99744.81;;;7.97;86.84
60101;BME280;45978;53.646;55.930;2022-09-09T00:02:20;99755.25;;;7.98;86.99
60101;BME280;45978;53.646;55.930;2022-09-09T00:03:50;99740.63;;;7.89;86.93
60101;BME280;45978;53.646;55.930;2022-09-09T00:05:18;99743.38;;;7.82;87.01
60101;BME280;45978;53.646;55.930;2022-09-09T00:06:28;99753.72;;;7.86;87.26
60101;BME280;45978;53.646;55.930;2022-09-09T00:07:51;99747.78;;;7.80;87.26
60101;BME280;45978;53.646;55.930;2022-09-09T00:09:10;99746.88;;;7.81;86.96
60101;BME280;45978;53.646;55.930;2022-09-09T00:10:34;99744.31;;;7.78;86.83
60101;BME280;45978;53.646;55.930;2022-09-09T00:11:43;99752.97;;;7.81;87.26
60101;BME280;45978;53.646;55.930;2022-09-09T00:16:03;99743.38;;;7.82;87.43
60101;BME280;45978;53.646;55.930;2022-09-09T00:18:24;99743.25;;;7.88;87.12
60101;BME280;45978;53.646;55.930;2022-09-09T00:21:15;99739.78;;;7.87;86.98
60101;BME280;45978;53.646;55.930;2022-09-09T00:22:25;99744.22;;;7.84;87.77
60101;BME280;45978;53.646;55.930;2022-09-09T00:23:30;99744.13;;;7.87;87.39
60101;BME280;45978;53.646;55.930;2022-09-09T00:24:44;99740.63;;;7.89;87.09
60101;BME280;45978;53.646;55.930;2022-09-09T00:27:36;99742.25;;;7.95;87.17
60101;BME280;45978;53.646;55.930;2022-09-09T00:28:55;99731.81;;;7.93;86.75
60101;BME280;45978;53.646;55.930;2022-09-09T00:30:13;99744.78;;;7.98;87.24
60101;BME280;45978;53.646;55.930;2022-09-09T00:31:26;99739.59;;;7.97;87.13
60101;BME280;45978;53.646;55.930;2022-09-09T00:32:30;99742.06;;;8.04;87.05
60101;BME280;45978;53.646;55.930;2022-09-09T00:33:32;99748.19;;;8.03;86.58
60101;BME280;45978;53.646;55.930;2022-09-09T00:34:37;99742.16;;;8.00;86.93
60101;BME280;45978;53.646;55.930;2022-09-09T00:35:46;99736.06;;;8.01;86.80
60101;BME280;45978;53.646;55.930;2022-09-09T00:36:53;99736.06;;;8.01;86.42
60101;BME280;45978;53.646;55.930;2022-09-09T00:38:01;99742.94;;;8.05;86.89
60101;BME280;45978;53.646;55.930;2022-09-09T00:40:52;99736.13;;;7.96;86.67
60101;BME280;45978;53.646;55.930;2022-09-09T00:43:40;99739.44;;;8.04;85.99
60101;BME280;45978;53.646;55.930;2022-09-09T00:48:10;99730.72;;;8.05;85.97
60101;BME280;45978;53.646;55.930;2022-09-09T00:50:56;99727.03;;;8.14;86.09
60101;BME280;45978;53.646;55.930;2022-09-09T00:52:13;99726.19;;;8.13;86.28
60101;BME280;45978;53.646;55.930;2022-09-09T00:53:37;99718.44;;;8.09;86.57
60101;BME280;45978;53.646;55.930;2022-09-09T00:56:20;99715.13;;;8.01;86.65
60101;BME280;45978;53.646;55.930;2022-09-09T00:58:29;99725.59;;;8.01;86.58
60101;BME280;45978;53.646;55.930;2022-09-09T00:59:47;99724.66;;;8.03;86.27
60101;BME280;45978;53.646;55.930;2022-09-09T01:01:04;99722.97;;;8.01;86.43
60101;BME280;45978;53.646;55.930;2022-09-09T01:02:25;99723.06;;;7.94;86.67
60101;BME280;45978;53.646;55.930;2022-09-09T01:03:37;99725.66;;;7.96;86.94
60101;BME280;45978;53.646;55.930;2022-09-09T01:04:41;99715.34;;;7.88;86.80
60101;BME280;45978;53.646;55.930;2022-09-09T01:05:51;99707.50;;;7.88;86.19
60101;BME280;45978;53.646;55.930;2022-09-09T01:07:05;99719.59;;;7.94;86.17
60101;BME280;45978;53.646;55.930;2022-09-09T01:10:11;99720.56;;;7.90;86.94
60101;BME280;45978;53.646;55.930;2022-09-09T01:11:32;99720.56;;;7.90;86.66
60101;BME280;45978;53.646;55.930;2022-09-09T01:12:42;99711.00;;;7.89;87.19
60101;BME280;45978;53.646;55.930;2022-09-09T01:14:01;99709.41;;;7.80;86.97
60101;BME280;45978;53.646;55.930;2022-09-09T01:15:21;99712.16;;;7.74;86.77
60101;BME280;45978;53.646;55.930;2022-09-09T01:16:28;99706.91;;;7.74;87.04
60101;BME280;45978;53.646;55.930;2022-09-09T01:17:41;99716.38;;;7.81;87.55
60101;BME280;45978;53.646;55.930;2022-09-09T01:18:51;99711.19;;;7.78;87.27
60101;BME280;45978;53.646;55.930;2022-09-09T01:21:48;99695.69;;;7.69;87.51
60101;BME280;45978;53.646;55.930;2022-09-09T01:23:38;99710.47;;;7.71;87.59
60101;BME280;45978;53.646;55.930;2022-09-09T01:26:54;99702.63;;;7.71;87.90
60101;BME280;45978;53.646;55.930;2022-09-09T01:28:04;99707.75;;;7.76;87.55
60101;BME280;45978;53.646;55.930;2022-09-09T01:29:13;99705.97;;;7.78;87.34
60101;BME280;45978;53.646;55.930;2022-09-09T01:30:27;99702.56;;;7.73;87.32
60101;BME280;45978;53.646;55.930;2022-09-09T01:31:41;99699.06;;;7.74;87.76
60101;BME280;45978;53.646;55.930;2022-09-09T01:32:50;99711.19;;;7.80;87.97
60101;BME280;45978;53.646;55.930;2022-09-09T01:33:54;99694.78;;;7.71;87.82
60101;BME280;45978;53.646;55.930;2022-09-09T01:34:57;99699.13;;;7.71;87.92
60101;BME280;45978;53.646;55.930;2022-09-09T01:36:19;99704.28;;;7.76;87.69
60101;BME280;45978;53.646;55.930;2022-09-09T01:37:25;99697.41;;;7.71;88.04
60101;BME280;45978;53.646;55.930;2022-09-09T01:38:28;99703.44;;;7.73;88.26
60101;BME280;45978;53.646;55.930;2022-09-09T01:39:34;99703.44;;;7.73;88.26
60101;BME280;45978;53.646;55.930;2022-09-09T01:40:43;99700.88;;;7.72;88.17
60101;BME280;45978;53.646;55.930;2022-09-09T01:41:49;99656.13;;;7.42;88.03
60101;BME280;45978;53.646;55.930;2022-09-09T01:42:53;99648.34;;;7.38;88.39
60101;BME280;45978;53.646;55.930;2022-09-09T01:44:03;99703.47;;;7.72;88.56
60101;BME280;45978;53.646;55.930;2022-09-09T01:45:12;99640.56;;;7.36;88.12
60101;BME280;45978;53.646;55.930;2022-09-09T01:46:16;99672.53;;;7.50;88.85
60101;BME280;45978;53.646;55.930;2022-09-09T01:47:18;99694.13;;;7.59;88.59
60101;BME280;45978;53.646;55.930;2022-09-09T01:48:53;99707.03;;;7.68;88.84
60101;BME280;45978;53.646;55.930;2022-09-09T01:49:57;99682.84;;;7.57;88.51
60101;BME280;45978;53.646;55.930;2022-09-09T01:51:01;99676.84;;;7.51;89.06
60101;BME280;45978;53.646;55.930;2022-09-09T01:52:03;99650.06;;;7.40;88.93
60101;BME280;45978;53.646;55.930;2022-09-09T01:53:11;99671.63;;;7.51;88.62
60101;BME280;45978;53.646;55.930;2022-09-09T01:54:13;99691.41;;;7.65;89.05
60101;BME280;45978;53.646;55.930;2022-09-09T01:55:15;99712.06;;;7.79;88.85
60101;BME280;45978;53.646;55.930;2022-09-09T01:58:02;99711.19;;;7.78;88.92
60101;BME280;45978;53.646;55.930;2022-09-09T02:00:35;99701.78;;;7.69;88.71
60101;BME280;45978;53.646;55.930;2022-09-09T02:03:59;99707.66;;;7.81;88.72
60101;BME280;45978;53.646;55.930;2022-09-09T02:05:39;99708.44;;;7.86;89.16
60101;BME280;45978;53.646;55.930;2022-09-09T02:06:55;99698.84;;;7.85;88.63
60101;BME280;45978;53.646;55.930;2022-09-09T02:08:25;99704.97;;;7.85;88.23
60101;BME280;45978;53.646;55.930;2022-09-09T02:09:36;99705.81;;;7.87;88.51
60101;BME280;45978;53.646;55.930;2022-09-09T02:10:50;99697.03;;;7.90;88.64
60101;BME280;45978;53.646;55.930;2022-09-09T02:12:12;99702.13;;;7.96;88.12
60101;BME280;45978;53.646;55.930;2022-09-09T02:13:25;99705.50;;;8.03;87.83
60101;BME280;45978;53.646;55.930;2022-09-09T02:14:35;99708.06;;;8.04;88.20
60101;BME280;45978;53.646;55.930;2022-09-09T02:16:00;99707.09;;;8.08;87.66
60101;BME280;45978;53.646;55.930;2022-09-09T02:17:14;99707.88;;;8.13;87.83
60101;BME280;45978;53.646;55.930;2022-09-09T02:19:06;99691.25;;;8.16;87.24
60101;BME280;45978;53.646;55.930;2022-09-09T02:20:23;99706.69;;;8.70;86.98
60101;BME280;45978;53.646;55.930;2022-09-09T02:21:32;99678.19;;;9.28;85.68
60101;BME280;45978;53.646;55.930;2022-09-09T02:22:39;99692.66;;;10.07;83.92
60101;BME280;45978;53.646;55.930;2022-09-09T02:23:42;99696.47;;;10.85;81.22
60101;BME280;45978;53.646;55.930;2022-09-09T02:24:47;99689.41;;;11.65;77.93
60101;BME280;45978;53.646;55.930;2022-09-09T02:26:00;99693.75;;;12.39;74.30
60101;BME280;45978;53.646;55.930;2022-09-09T02:27:03;99680.53;;;12.84;71.94
60101;BME280;45978;53.646;55.930;2022-09-09T02:28:08;99678.25;;;13.19;69.55
60101;BME280;45978;53.646;55.930;2022-09-09T02:29:25;99678.63;;;13.53;66.58
60101;BME280;45978;53.646;55.930;2022-09-09T02:30:29;99675.28;;;13.89;66.67
60101;BME280;45978;53.646;55.930;2022-09-09T02:31:36;99677.00;;;13.90;64.76
60101;BME280;45978;53.646;55.930;2022-09-09T02:32:43;99679.88;;;14.42;63.95
60101;BME280;45978;53.646;55.930;2022-09-09T02:33:56;99682.63;;;14.40;62.69
60101;BME280;45978;53.646;55.930;2022-09-09T02:35:08;99694.38;;;14.52;61.86
60101;BME280;45978;53.646;55.930;2022-09-09T02:36:14;99693.50;;;14.52;61.82
60101;BME280;45978;53.646;55.930;2022-09-09T02:37:26;99686.34;;;14.36;61.47
60101;BME280;45978;53.646;55.930;2022-09-09T02:38:38;99685.03;;;13.68;62.94
60101;BME280;45978;53.646;55.930;2022-09-09T02:39:47;99681.19;;;13.12;64.62
60101;BME280;45978;53.646;55.930;2022-09-09T02:40:51;99692.44;;;12.73;65.86
60101;BME280;45978;53.646;55.930;2022-09-09T02:41:56;99683.25;;;12.37;67.00
60101;BME280;45978;53.646;55.930;2022-09-09T02:43:04;99682.56;;;12.10;67.73
60101;BME280;45978;53.646;55.930;2022-09-09T02:44:12;99688.06;;;11.79;68.89
60101;BME280;45978;53.646;55.930;2022-09-09T02:45:27;99690.38;;;11.63;69.57
60101;BME280;45978;53.646;55.930;2022-09-09T02:49:40;99685.88;;;13.68;65.83
60101;BME280;45978;53.646;55.930;2022-09-09T02:52:08;99670.59;;;15.77;58.71
60101;BME280;45978;53.646;55.930;2022-09-09T02:53:20;99667.72;;;16.47;56.49
60101;BME280;45978;53.646;55.930;2022-09-09T02:54:33;99668.47;;;16.97;54.50
60101;BME280;45978;53.646;55.930;2022-09-09T02:55:48;99667.44;;;17.30;53.35
60101;BME280;45978;53.646;55.930;2022-09-09T02:57:04;99666.16;;;17.51;51.83
60101;BME280;45978;53.646;55.930;2022-09-09T02:58:15;99668.03;;;17.94;50.29
60101;BME280;45978;53.646;55.930;2022-09-09T02:59:29;99663.19;;;17.86;50.36
60101;BME280;45978;53.646;55.930;2022-09-09T03:00:31;99669.28;;;18.03;50.09
60101;BME280;45978;53.646;55.930;2022-09-09T03:01:36;99673.16;;;18.67;49.46
60101;BME280;45978;53.646;55.930;2022-09-09T03:02:38;99666.28;;;18.77;48.45
60101;BME280;45978;53.646;55.930;2022-09-09T03:03:43;99678.81;;;18.48;48.55
60101;BME280;45978;53.646;55.930;2022-09-09T03:04:49;99672.56;;;18.91;47.45
60101;BME280;45978;53.646;55.930;2022-09-09T03:05:56;99669.41;;;19.11;46.09
60101;BME280;45978;53.646;55.930;2022-09-09T03:06:58;99665.13;;;19.49;45.62
60101;BME280;45978;53.646;55.930;2022-09-09T03:08:00;99658.53;;;19.54;44.96
60101;BME280;45978;53.646;55.930;2022-09-09T03:09:02;99664.81;;;19.66;44.47
60101;BME280;45978;53.646;55.930;2022-09-09T03:10:04;99659.38;;;19.68;44.12
60101;BME280;45978;53.646;55.930;2022-09-09T03:11:07;99653.91;;;19.44;43.85
60101;BME280;45978;53.646;55.930;2022-09-09T03:12:11;99660.91;;;19.85;43.57
60101;BME280;45978;53.646;55.930;2022-09-09T03:13:14;99655.94;;;20.30;42.92
60101;BME280;45978;53.646;55.930;2022-09-09T03:14:16;99657.38;;;20.47;42.58
60101;BME280;45978;53.646;55.930;2022-09-09T03:15:22;99661.34;;;20.41;41.98
60101;BME280;45978;53.646;55.930;2022-09-09T03:16:24;99657.69;;;20.55;41.59
60101;BME280;45978;53.646;55.930;2022-09-09T03:17:28;99657.22;;;20.74;41.26
60101;BME280;45978;53.646;55.930;2022-09-09T03:18:31;99657.88;;;20.52;41.12
60101;BME280;45978;53.646;55.930;2022-09-09T03:19:33;99648.16;;;20.64;41.11
60101;BME280;45978;53.646;55.930;2022-09-09T03:20:36;99648.47;;;20.72;40.74
60101;BME280;45978;53.646;55.930;2022-09-09T03:21:37;99643.19;;;20.83;40.51
60101;BME280;45978;53.646;55.930;2022-09-09T03:22:40;99651.44;;;20.80;40.30
60101;BME280;45978;53.646;55.930;2022-09-09T03:23:41;99651.25;;;20.57;40.34
60101;BME280;45978;53.646;55.930;2022-09-09T03:24:43;99651.72;;;20.51;40.45
60101;BME280;45978;53.646;55.930;2022-09-09T03:25:51;99652.44;;;20.53;40.36
60101;BME280;45978;53.646;55.930;2022-09-09T03:27:03;99645.75;;;20.61;40.19
60101;BME280;45978;53.646;55.930;2022-09-09T03:28:14;99638.09;;;20.80;39.88
60101;BME280;45978;53.646;55.930;2022-09-09T03:29:17;99644.22;;;20.93;39.57
60101;BME280;45978;53.646;55.930;2022-09-09T03:30:21;99640.16;;;21.47;38.83
60101;BME280;45978;53.646;55.930;2022-09-09T03:31:23;99637.16;;;21.74;38.31
60101;BME280;45978;53.646;55.930;2022-09-09T03:32:25;99634.50;;;21.74;38.10
60101;BME280;45978;53.646;55.930;2022-09-09T03:33:28;99639.84;;;21.97;37.82
60101;BME280;45978;53.646;55.930;2022-09-09T03:34:31;99625.03;;;22.04;37.42
60101;BME280;45978;53.646;55.930;2022-09-09T03:35:33;99633.53;;;22.43;37.24
60101;BME280;45978;53.646;55.930;2022-09-09T03:36:36;99634.91;;;22.70;36.68
60101;BME280;45978;53.646;55.930;2022-09-09T03:37:40;99648.97;;;22.51;36.64
60101;BME280;45978;53.646;55.930;2022-09-09T03:38:43;99637.78;;;22.78;36.43
60101;BME280;45978;53.646;55.930;2022-09-09T03:39:48;99620.31;;;23.06;35.90
60101;BME280;45978;53.646;55.930;2022-09-09T03:40:52;99629.41;;;23.57;35.24
60101;BME280;45978;53.646;55.930;2022-09-09T03:41:59;99636.38;;;24.31;34.50
60101;BME280;45978;53.646;55.930;2022-09-09T03:43:02;99633.16;;;24.37;33.65
60101;BME280;45978;53.646;55.930;2022-09-09T03:44:03;99625.34;;;24.84;32.98
60101;BME280;45978;53.646;55.930;2022-09-09T03:45:11;99624.75;;;24.81;32.97
60101;BME280;45978;53.646;55.930;2022-09-09T03:46:15;99639.59;;;23.63;33.85
60101;BME280;45978;53.646;55.930;2022-09-09T03:47:21;99638.19;;;22.62;35.06
60101;BME280;45978;53.646;55.930;2022-09-09T03:48:31;99635.91;;;21.45;37.08
60101;BME280;45978;53.646;55.930;2022-09-09T03:49:33;99641.13;;;20.50;38.77
60101;BME280;45978;53.646;55.930;2022-09-09T03:50:36;99643.16;;;18.92;40.62
60101;BME280;45978;53.646;55.930;2022-09-09T03:51:39;99631.50;;;17.97;42.48
60101;BME280;45978;53.646;55.930;2022-09-09T03:52:41;99615.66;;;17.22;44.09
60101;BME280;45978;53.646;55.930;2022-09-09T03:53:50;99609.94;;;16.68;45.54
60101;BME280;45978;53.646;55.930;2022-09-09T03:54:52;99653.44;;;16.50;46.62
60101;BME280;45978;53.646;55.930;2022-09-09T03:55:56;99597.22;;;15.79;47.88
60101;BME280;45978;53.646;55.930;2022-09-09T03:57:02;99607.19;;;16.39;47.43
60101;BME280;45978;53.646;55.930;2022-09-09T03:58:03;99595.72;;;17.15;45.65
60101;BME280;45978;53.646;55.930;2022-09-09T03:59:05;99636.53;;;17.29;45.57
60101;BME280;45978;53.646;55.930;2022-09-09T04:00:07;99638.34;;;17.28;46.03
60101;BME280;45978;53.646;55.930;2022-09-09T04:01:21;99643.03;;;17.09;46.28
60101;BME280;45978;53.646;55.930;2022-09-09T04:02:23;99625.84;;;16.68;47.12
60101;BME280;45978;53.646;55.930;2022-09-09T04:03:30;99640.44;;;16.29;48.36
60101;BME280;45978;53.646;55.930;2022-09-09T04:04:33;99643.78;;;15.83;49.33
60101;BME280;45978;53.646;55.930;2022-09-09T04:05:39;99650.97;;;15.64;49.97
60101;BME280;45978;53.646;55.930;2022-09-09T04:06:49;99640.34;;;15.31;51.21
60101;BME280;45978;53.646;55.930;2022-09-09T04:07:51;99643.44;;;15.39;51.31
60101;BME280;45978;53.646;55.930;2022-09-09T04:08:53;99644.34;;;15.55;51.09
60101;BME280;45978;53.646;55.930;2022-09-09T04:09:58;99651.88;;;16.14;50.31
60101;BME280;45978;53.646;55.930;2022-09-09T04:11:00;99643.25;;;16.58;49.97
60101;BME280;45978;53.646;55.930;2022-09-09T04:12:05;99650.50;;;16.54;49.70
60101;BME280;45978;53.646;55.930;2022-09-09T04:13:08;99644.66;;;16.79;49.37
60101;BME280;45978;53.646;55.930;2022-09-09T04:14:09;99648.44;;;16.75;49.33
60101;BME280;45978;53.646;55.930;2022-09-09T04:15:11;99634.13;;;17.10;48.57
60101;BME280;45978;53.646;55.930;2022-09-09T04:16:13;99648.56;;;17.79;47.32
60101;BME280;45978;53.646;55.930;2022-09-09T04:17:17;99651.88;;;18.40;46.23
60101;BME280;45978;53.646;55.930;2022-09-09T04:18:25;99628.09;;;19.06;44.39
60101;BME280;45978;53.646;55.930;2022-09-09T04:19:30;99603.22;;;19.45;43.44
60101;BME280;45978;53.646;55.930;2022-09-09T04:20:32;99636.13;;;20.58;41.87
60101;BME280;45978;53.646;55.930;2022-09-09T04:21:34;99628.53;;;21.24;40.38
60101;BME280;45978;53.646;55.930;2022-09-09T04:22:36;99630.22;;;21.49;40.29
60101;BME280;45978;53.646;55.930;2022-09-09T04:23:41;99639.94;;;21.50;39.95
60101;BME280;45978;53.646;55.930;2022-09-09T04:24:43;99642.47;;;21.52;39.92
60101;BME280;45978;53.646;55.930;2022-09-09T04:25:48;99636.31;;;21.97;39.51
60101;BME280;45978;53.646;55.930;2022-09-09T04:26:50;99643.09;;;22.68;38.23
60101;BME280;45978;53.646;55.930;2022-09-09T04:27:55;99642.03;;;23.24;36.70
60101;BME280;45978;53.646;55.930;2022-09-09T04:28:57;99643.19;;;23.52;36.37
60101;BME280;45978;53.646;55.930;2022-09-09T04:29:59;99602.25;;;23.71;35.71
60101;BME280;45978;53.646;55.930;2022-09-09T04:31:06;99609.44;;;24.02;35.55
60101;BME280;45978;53.646;55.930;2022-09-09T04:32:09;99638.34;;;23.67;36.17
60101;BME280;45978;53.646;55.930;2022-09-09T04:33:12;99621.88;;;23.09;36.04
60101;BME280;45978;53.646;55.930;2022-09-09T04:34:13;99646.03;;;22.09;37.62
60101;BME280;45978;53.646;55.930;2022-09-09T04:35:16;99635.81;;;21.22;38.85
60101;BME280;45978;53.646;55.930;2022-09-09T04:36:18;99643.19;;;21.07;39.17
60101;BME280;45978;53.646;55.930;2022-09-09T04:37:21;99626.25;;;20.71;39.66
60101;BME280;45978;53.646;55.930;2022-09-09T04:38:23;99659.59;;;20.66;40.43
60101;BME280;45978;53.646;55.930;2022-09-09T04:39:24;99649.50;;;20.45;40.99
60101;BME280;45978;53.646;55.930;2022-09-09T04:40:27;99649.13;;;20.26;41.41
60101;BME280;45978;53.646;55.930;2022-09-09T04:41:30;99669.41;;;20.65;41.11
60101;BME280;45978;53.646;55.930;2022-09-09T04:42:36;99662.84;;;20.45;41.04
60101;BME280;45978;53.646;55.930;2022-09-09T04:43:39;99661.53;;;20.51;40.99
60101;BME280;45978;53.646;55.930;2022-09-09T04:44:42;99665.47;;;20.08;41.73
60101;BME280;45978;53.646;55.930;2022-09-09T04:45:50;99657.28;;;19.86;41.80
60101;BME280;45978;53.646;55.930;2022-09-09T04:46:57;99658.53;;;20.06;41.82
60101;BME280;45978;53.646;55.930;2022-09-09T04:47:59;99664.19;;;19.50;43.34
60101;BME280;45978;53.646;55.930;2022-09-09T04:49:02;99663.47;;;19.73;43.06
60101;BME280;45978;53.646;55.930;2022-09-09T04:50:08;99669.91;;;19.56;42.94
60101;BME280;45978;53.646;55.930;2022-09-09T04:51:13;99671.81;;;19.29;43.60
60101;BME280;45978;53.646;55.930;2022-09-09T04:52:15;99677.22;;;19.14;43.73
60101;BME280;45978;53.646;55.930;2022-09-09T04:53:19;99669.44;;;18.84;44.34
60101;BME280;45978;53.646;55.930;2022-09-09T04:54:26;99666.34;;;18.63;44.61
60101;BME280;45978;53.646;55.930;2022-09-09T04:55:29;99666.84;;;18.55;45.03
60101;BME280;45978;53.646;55.930;2022-09-09T04:56:32;99683.09;;;18.78;45.35
60101;BME280;45978;53.646;55.930;2022-09-09T04:57:35;99665.69;;;19.14;44.98
60101;BME280;45978;53.646;55.930;2022-09-09T04:58:40;99672.94;;;20.03;43.15
60101;BME280;45978;53.646;55.930;2022-09-09T04:59:44;99665.84;;;21.02;41.97
60101;BME280;45978;53.646;55.930;2022-09-09T05:00:47;99668.31;;;22.09;39.51
60101;BME280;45978;53.646;55.930;2022-09-09T05:01:50;99656.91;;;22.85;38.10
60101;BME280;45978;53.646;55.930;2022-09-09T05:02:52;99663.84;;;23.41;37.26
60101;BME280;45978;53.646;55.930;2022-09-09T05:03:53;99658.69;;;23.49;36.84
60101;BME280;45978;53.646;55.930;2022-09-09T05:05:02;99662.63;;;23.87;35.57
60101;BME280;45978;53.646;55.930;2022-09-09T05:06:09;99656.34;;;23.77;35.70
60101;BME280;45978;53.646;55.930;2022-09-09T05:07:11;99653.22;;;23.29;36.39
60101;BME280;45978;53.646;55.930;2022-09-09T05:08:14;99661.03;;;22.89;36.95
60101;BME280;45978;53.646;55.930;2022-09-09T05:09:18;99658.94;;;21.92;38.37
60101;BME280;45978;53.646;55.930;2022-09-09T05:10:21;99662.25;;;21.14;39.72
60101;BME280;45978;53.646;55.930;2022-09-09T05:11:25;99671.44;;;20.62;40.74
60101;BME280;45978;53.646;55.930;2022-09-09T05:12:32;99651.53;;;19.92;42.35
60101;BME280;45978;53.646;55.930;2022-09-09T05:13:34;99665.44;;;19.57;43.05
60101;BME280;45978;53.646;55.930;2022-09-09T05:14:35;99667.47;;;19.66;43.32
60101;BME280;45978;53.646;55.930;2022-09-09T05:15:39;99666.38;;;19.43;43.33
60101;BME280;45978;53.646;55.930;2022-09-09T05:16:40;99676.69;;;19.22;43.14
60101;BME280;45978;53.646;55.930;2022-09-09T05:17:42;99671.63;;;18.36;43.30
60101;BME280;45978;53.646;55.930;2022-09-09T05:18:44;99681.41;;;18.21;43.58
60101;BME280;45978;53.646;55.930;2022-09-09T05:19:50;99683.53;;;17.57;44.58
60101;BME280;45978;53.646;55.930;2022-09-09T05:20:51;99681.09;;;17.24;44.58
60101;BME280;45978;53.646;55.930;2022-09-09T05:22:18;99680.97;;;16.63;44.97
60101;BME280;45978;53.646;55.930;2022-09-09T05:23:19;99687.38;;;16.43;45.71
60101;BME280;45978;53.646;55.930;2022-09-09T05:24:24;99670.50;;;16.12;46.46
60101;BME280;45978;53.646;55.930;2022-09-09T05:25:30;99664.44;;;15.77;47.63
60101;BME280;45978;53.646;55.930;2022-09-09T05:26:33;99682.19;;;15.75;48.10
60101;BME280;45978;53.646;55.930;2022-09-09T05:27:36;99646.16;;;15.37;49.12
60101;BME280;45978;53.646;55.930;2022-09-09T05:28:40;99666.69;;;15.32;49.66
60101;BME280;45978;53.646;55.930;2022-09-09T05:29:42;99672.00;;;15.32;50.39
60101;BME280;45978;53.646;55.930;2022-09-09T05:31:01;99662.66;;;15.08;51.67
60101;BME280;45978;53.646;55.930;2022-09-09T05:32:07;99666.19;;;14.72;52.30
60101;BME280;45978;53.646;55.930;2022-09-09T05:33:11;99670.75;;;14.49;52.76
60101;BME280;45978;53.646;55.930;2022-09-09T05:34:12;99681.38;;;14.48;53.39
60101;BME280;45978;53.646;55.930;2022-09-09T05:35:14;99668.63;;;14.38;53.61
60101;BME280;45978;53.646;55.930;2022-09-09T05:36:18;99684.66;;;14.34;54.20
60101;BME280;45978;53.646;55.930;2022-09-09T05:37:24;99682.09;;;14.32;54.53
60101;BME280;45978;53.646;55.930;2022-09-09T05:38:28;99684.47;;;14.19;55.44
60101;BME280;45978;53.646;55.930;2022-09-09T05:39:30;99683.72;;;14.16;55.83
60101;BME280;45978;53.646;55.930;2022-09-09T05:40:33;99661.00;;;13.93;56.56
60101;BME280;45978;53.646;55.930;2022-09-09T05:41:35;99648.66;;;13.74;57.52
60101;BME280;45978;53.646;55.930;2022-09-09T05:42:37;99667.50;;;13.85;58.13
60101;BME280;45978;53.646;55.930;2022-09-09T05:43:41;99678.34;;;13.98;57.54
60101;BME280;45978;53.646;55.930;2022-09-09T05:44:46;99679.38;;;13.96;57.70
60101;BME280;45978;53.646;55.930;2022-09-09T05:45:48;99668.22;;;13.89;57.94
60101;BME280;45978;53.646;55.930;2022-09-09T05:46:49;99680.22;;;13.96;58.65
60101;BME280;45978;53.646;55.930;2022-09-09T05:47:51;99671.38;;;13.97;58.66
60101;BME280;45978;53.646;55.930;2022-09-09T05:48:56;99674.75;;;14.01;58.79
60101;BME280;45978;53.646;55.930;2022-09-09T05:50:04;99674.66;;;14.02;58.87
60101;BME280;45978;53.646;55.930;2022-09-09T05:51:09;99678.66;;;14.11;59.39
60101;BME280;45978;53.646;55.930;2022-09-09T05:52:13;99678.16;;;14.03;59.29
60101;BME280;45978;53.646;55.930;2022-09-09T05:53:15;99668.41;;;14.05;59.32
60101;BME280;45978;53.646;55.930;2022-09-09T05:54:18;99668.59;;;14.19;58.63
60101;BME280;45978;53.646;55.930;2022-09-09T05:55:25;99675.25;;;14.28;59.21
60101;BME280;45978;53.646;55.930;2022-09-09T05:56:28;99685.19;;;14.23;59.43
60101;BME280;45978;53.646;55.930;2022-09-09T05:57:30;99680.19;;;14.17;59.07
60101;BME280;45978;53.646;55.930;2022-09-09T05:58:34;99686.81;;;14.25;59.11
60101;BME280;45978;53.646;55.930;2022-09-09T05:59:39;99680.97;;;14.19;58.94
60101;BME280;45978;53.646;55.930;2022-09-09T06:00:40;99681.69;;;14.22;59.21
60101;BME280;45978;53.646;55.930;2022-09-09T06:01:42;99675.88;;;14.33;58.92
60101;BME280;45978;53.646;55.930;2022-09-09T06:03:11;99687.38;;;14.51;58.84
60101;BME280;45978;53.646;55.930;2022-09-09T06:04:12;99655.59;;;14.34;58.66
60101;BME280;45978;53.646;55.930;2022-09-09T06:05:15;99685.34;;;14.58;58.76
60101;BME280;45978;53.646;55.930;2022-09-09T06:06:21;99684.34;;;14.60;58.94
60101;BME280;45978;53.646;55.930;2022-09-09T06:07:23;99685.41;;;14.56;58.72
60101;BME280;45978;53.646;55.930;2022-09-09T06:08:24;99673.25;;;14.52;59.27
60101;BME280;45978;53.646;55.930;2022-09-09T06:09:28;99687.84;;;14.61;58.85
60101;BME280;45978;53.646;55.930;2022-09-09T06:10:31;99682.94;;;14.52;58.28
60101;BME280;45978;53.646;55.930;2022-09-09T06:11:33;99689.47;;;14.63;58.50
60101;BME280;45978;53.646;55.930;2022-09-09T06:12:37;99684.91;;;14.48;58.81
60101;BME280;45978;53.646;55.930;2022-09-09T06:13:39;99688.94;;;14.55;58.77
60101;BME280;45978;53.646;55.930;2022-09-09T06:14:41;99671.59;;;14.50;58.52
60101;BME280;45978;53.646;55.930;2022-09-09T06:15:53;99682.06;;;14.72;58.06
60101;BME280;45978;53.646;55.930;2022-09-09T06:17:01;99640.59;;;14.53;57.64
60101;BME280;45978;53.646;55.930;2022-09-09T06:18:04;99645.09;;;14.51;57.89
60101;BME280;45978;53.646;55.930;2022-09-09T06:19:06;99678.81;;;14.84;57.34
60101;BME280;45978;53.646;55.930;2022-09-09T06:20:09;99678.38;;;14.93;56.99
60101;BME280;45978;53.646;55.930;2022-09-09T06:21:18;99667.63;;;14.96;57.30
60101;BME280;45978;53.646;55.930;2022-09-09T06:22:21;99675.72;;;15.11;57.10
60101;BME280;45978;53.646;55.930;2022-09-09T06:23:22;99656.59;;;15.05;56.49
60101;BME280;45978;53.646;55.930;2022-09-09T06:24:42;99673.72;;;15.16;55.70
60101;BME280;45978;53.646;55.930;2022-09-09T06:25:44;99673.63;;;15.17;55.90
60101;BME280;45978;53.646;55.930;2022-09-09T06:26:46;99629.75;;;14.96;55.30